Airville, Pennsylvania
Current Conditions -  °F | °C
As of 5:53 PM on Saturday 25 Oct 2014 (Local Time) from KLNS Reporting Station
Broken Clouds Broken Clouds  
Wind Chill: 66°   Ceiling: 6500
Heat Index: 66°   Visibility: 10mi
Dew Point: 44°   Wind: 9mph
Humidity: 45%   Direction: 230°SW
Pressure: 29.68"   Gusts: NA
Location:  39.83°N, 76.41°W
Report Text: KLNS 252153Z 23008KT 10SM BKN065 19/07 A2968 RMK AO2 SLP051 T01890067
Loading
Personal Weather Stations






























Interactive Weather Map
Tropical Storm Tracking
New forecast layout! Learn more

10-Day Weather Forecast

Advertisements
Track Severe Weather on mobile